createdAt,value
2023-03-25T00:01:19.774Z,97005.66
2023-03-25T00:03:50.787Z,97013.47
2023-03-25T00:06:20.018Z,97020.59
2023-03-25T00:08:48.263Z,97011.16
2023-03-25T00:11:19.294Z,97015.44
2023-03-25T00:13:49.213Z,97003.34
2023-03-25T00:16:19.166Z,97005.00
2023-03-25T00:18:48.199Z,97005.84
2023-03-25T00:21:18.776Z,97000.88
2023-03-25T00:23:47.198Z,97006.53
2023-03-25T00:26:15.916Z,97013.03
2023-03-25T00:28:44.745Z,97007.84
2023-03-25T00:31:16.274Z,97006.56
2023-03-25T00:33:44.625Z,97004.06
2023-03-25T00:36:14.843Z,97006.75
2023-03-25T00:38:43.975Z,97001.59
2023-03-25T00:41:22.973Z,97011.56
2023-03-25T00:43:53.918Z,97007.25
2023-03-25T00:46:27.859Z,97006.59
2023-03-25T00:48:57.377Z,97005.13
2023-03-25T00:51:27.301Z,97006.34
2023-03-25T00:54:00.263Z,97003.69
2023-03-25T00:56:29.529Z,97008.31
2023-03-25T00:58:58.371Z,97001.53
2023-03-25T01:01:30.338Z,96992.06
2023-03-25T01:04:00.740Z,96990.41
2023-03-25T01:06:34.840Z,96988.59
2023-03-25T01:09:07.793Z,96986.13
2023-03-25T01:11:40.842Z,96981.59
2023-03-25T01:14:14.280Z,96987.09
2023-03-25T01:16:45.521Z,96981.78
2023-03-25T01:19:15.421Z,96980.47
2023-03-25T01:21:45.330Z,96984.78
2023-03-25T01:24:15.833Z,96990.09
2023-03-25T01:26:46.093Z,96993.59
2023-03-25T01:29:19.417Z,96986.81
2023-03-25T01:31:49.473Z,96986.63
2023-03-25T01:34:18.029Z,96981.31
2023-03-25T01:36:46.889Z,96984.78
2023-03-25T01:39:18.714Z,96982.78
2023-03-25T01:41:50.921Z,96976.63
2023-03-25T01:45:14.994Z,96971.66
2023-03-25T01:47:45.985Z,96973.53
2023-03-25T01:50:21.167Z,96976.53
2023-03-25T01:52:53.192Z,96961.78
2023-03-25T01:55:21.635Z,96956.44
2023-03-25T01:57:54.427Z,96958.94
2023-03-25T02:00:24.811Z,96957.09
2023-03-25T02:02:58.871Z,96945.81
2023-03-25T02:05:43.773Z,96957.44
2023-03-25T02:08:12.346Z,96967.88
2023-03-25T02:10:40.692Z,96957.25
2023-03-25T02:13:09.109Z,96956.44
2023-03-25T02:15:55.367Z,96957.25
2023-03-25T02:18:40.219Z,96948.66
2023-03-25T02:22:01.187Z,96937.53
2023-03-25T02:25:16.131Z,96935.91
2023-03-25T02:27:58.668Z,96935.06
2023-03-25T02:31:05.804Z,96935.91
2023-03-25T02:34:29.307Z,96934.22
2023-03-25T02:37:52.389Z,96923.75
2023-03-25T02:40:28.037Z,96933.75
2023-03-25T02:43:04.678Z,96932.75
2023-03-25T02:45:37.198Z,96921.09
2023-03-25T02:48:14.261Z,96930.94
2023-03-25T02:50:47.022Z,96929.25
2023-03-25T02:53:23.567Z,96923.94
2023-03-25T02:55:59.272Z,96926.13
2023-03-25T02:58:30.119Z,96922.81
2023-03-25T03:00:59.059Z,96919.31
2023-03-25T03:03:28.853Z,96938.25
2023-03-25T03:06:01.146Z,96927.97
2023-03-25T03:08:51.318Z,96927.50
2023-03-25T03:11:30.286Z,96926.84
2023-03-25T03:14:16.969Z,96926.69
2023-03-25T03:16:58.486Z,96926.88
2023-03-25T03:19:40.270Z,96929.06
2023-03-25T03:22:22.512Z,96931.88
2023-03-25T03:24:56.119Z,96924.25
2023-03-25T03:27:34.027Z,96927.91
2023-03-25T03:30:13.145Z,96932.72
2023-03-25T03:32:48.421Z,96934.09
2023-03-25T03:35:23.410Z,96945.22
2023-03-25T03:37:58.315Z,96948.84
2023-03-25T03:40:31.641Z,96947.53
2023-03-25T03:43:04.949Z,96950.69
2023-03-25T03:45:38.672Z,96957.31
2023-03-25T03:48:13.423Z,96963.94
2023-03-25T03:50:53.219Z,96960.97
2023-03-25T03:53:27.421Z,96971.75
2023-03-25T03:56:01.943Z,96976.38
2023-03-25T03:58:36.166Z,96972.09
2023-03-25T04:01:10.879Z,96969.44
2023-03-25T04:03:45.633Z,96969.94
2023-03-25T04:06:22.120Z,96961.97
2023-03-25T04:08:58.973Z,96959.16
2023-03-25T04:11:34.119Z,96959.78
2023-03-25T04:14:06.149Z,96960.47
2023-03-25T04:16:36.130Z,96959.28
2023-03-25T04:19:05.453Z,96967.09
2023-03-25T04:21:37.320Z,96968.09
2023-03-25T04:24:08.220Z,96966.91
2023-03-25T04:26:38.162Z,96966.44
2023-03-25T04:29:09.489Z,96969.25
2023-03-25T04:31:46.641Z,96964.59
2023-03-25T04:34:15.853Z,96962.63
2023-03-25T04:36:44.204Z,96960.81
2023-03-25T04:39:12.919Z,96964.44
2023-03-25T04:41:41.372Z,96967.75
2023-03-25T04:44:11.388Z,96962.63
2023-03-25T04:46:41.351Z,96969.56
2023-03-25T04:49:19.209Z,96967.94
2023-03-25T04:51:49.521Z,96966.09
2023-03-25T04:54:18.368Z,96977.69
2023-03-25T04:56:47.751Z,96978.69
2023-03-25T04:59:18.241Z,96989.47
2023-03-25T05:01:47.255Z,96996.13
2023-03-25T05:04:18.416Z,96990.31
2023-03-25T05:06:51.571Z,96995.78
2023-03-25T05:09:23.119Z,96989.16
2023-03-25T05:11:53.111Z,96992.00
2023-03-25T05:14:23.668Z,96999.09
2023-03-25T05:16:52.116Z,96996.63
2023-03-25T05:19:20.909Z,97014.22
2023-03-25T05:21:49.597Z,97004.25
2023-03-25T05:24:17.885Z,97010.22
2023-03-25T05:26:46.243Z,97007.56
2023-03-25T05:29:16.656Z,96987.66
2023-03-25T05:31:48.636Z,96991.00
2023-03-25T05:34:17.227Z,96971.09
2023-03-25T05:36:45.971Z,96968.44
2023-03-25T05:39:14.440Z,96966.28
2023-03-25T05:41:45.653Z,96976.41
2023-03-25T05:44:15.544Z,96971.59
2023-03-25T05:46:45.331Z,96979.72
2023-03-25T05:49:13.627Z,96973.59
2023-03-25T05:51:45.265Z,96972.41
2023-03-25T05:54:16.111Z,96983.69
2023-03-25T05:56:44.473Z,96984.34
2023-03-25T05:59:14.487Z,96989.66
2023-03-25T06:01:45.698Z,97008.22
2023-03-25T06:04:21.937Z,96993.97
2023-03-25T06:06:50.428Z,97000.44
2023-03-25T06:09:19.048Z,96994.78
2023-03-25T06:11:53.428Z,96996.13
2023-03-25T06:14:25.686Z,96999.44
2023-03-25T06:16:54.051Z,97003.59
2023-03-25T06:19:26.786Z,97006.06
2023-03-25T06:21:55.203Z,97012.19
2023-03-25T06:24:26.289Z,97017.34
2023-03-25T06:26:54.662Z,97013.69
2023-03-25T06:29:22.950Z,97013.19
2023-03-25T06:31:51.235Z,97015.69
2023-03-25T06:34:19.806Z,97014.69
2023-03-25T06:36:50.146Z,97031.94
2023-03-25T06:39:19.064Z,97025.66
2023-03-25T06:41:47.435Z,97027.50
2023-03-25T06:44:16.803Z,97027.97
2023-03-25T06:46:53.626Z,97026.66
2023-03-25T06:49:21.988Z,97040.22
2023-03-25T06:51:51.601Z,97031.09
2023-03-25T06:54:30.029Z,97047.84
2023-03-25T06:56:58.423Z,97045.53
2023-03-25T06:59:26.916Z,97055.31
2023-03-25T07:01:55.231Z,97050.16
2023-03-25T07:04:23.654Z,97048.66
2023-03-25T07:06:54.104Z,97064.09
2023-03-25T07:09:23.433Z,97067.06
2023-03-25T07:11:51.715Z,97050.97
2023-03-25T07:14:25.572Z,97061.25
2023-03-25T07:16:53.854Z,97066.22
2023-03-25T07:19:24.232Z,97061.53
2023-03-25T07:21:53.869Z,97064.16
2023-03-25T07:24:22.342Z,97066.34
2023-03-25T07:26:50.628Z,97071.94
2023-03-25T07:29:19.096Z,97076.41
2023-03-25T07:31:47.492Z,97080.56
2023-03-25T07:34:15.865Z,97082.06
2023-03-25T07:36:44.146Z,97073.75
2023-03-25T07:39:13.869Z,97080.75
2023-03-25T07:41:43.008Z,97080.75
2023-03-25T07:44:12.371Z,97082.38
2023-03-25T07:46:49.073Z,97089.88
2023-03-25T07:49:18.106Z,97091.38
2023-03-25T07:51:47.191Z,97109.63
2023-03-25T07:54:16.869Z,97104.00
2023-03-25T07:56:45.227Z,97104.84
2023-03-25T07:59:13.540Z,97093.19
2023-03-25T08:01:47.491Z,97093.53
2023-03-25T08:04:15.770Z,97098.63
2023-03-25T08:06:44.210Z,97095.09
2023-03-25T08:09:12.544Z,97091.97
2023-03-25T08:11:42.226Z,97091.59
2023-03-25T08:14:10.585Z,97097.06
2023-03-25T08:16:38.873Z,97083.91
2023-03-25T08:19:07.770Z,97083.38
2023-03-25T08:21:36.100Z,97085.47
2023-03-25T08:24:04.977Z,97084.56
2023-03-25T08:26:39.838Z,97093.38
2023-03-25T08:29:10.247Z,97092.53
2023-03-25T08:31:41.614Z,97098.72
2023-03-25T08:34:09.975Z,97083.69
2023-03-25T08:36:39.479Z,97081.84
2023-03-25T08:39:11.868Z,97079.56
2023-03-25T08:41:40.521Z,97083.53
2023-03-25T08:44:10.321Z,97064.00
2023-03-25T08:46:39.209Z,97067.88
2023-03-25T08:49:07.620Z,97063.34
2023-03-25T08:51:35.894Z,97073.78
2023-03-25T08:54:05.732Z,97065.38
2023-03-25T08:56:34.048Z,97066.59
2023-03-25T08:59:02.368Z,97076.63
2023-03-25T09:01:32.051Z,97070.44
2023-03-25T09:04:00.581Z,97058.31
2023-03-25T09:06:28.844Z,97055.13
2023-03-25T09:09:16.593Z,97065.91
2023-03-25T09:11:47.950Z,97061.81
2023-03-25T09:14:16.441Z,97047.19
2023-03-25T09:16:46.026Z,97055.47
2023-03-25T09:19:14.291Z,97050.75
2023-03-25T09:21:42.622Z,97053.03
2023-03-25T09:24:12.582Z,97037.44
2023-03-25T09:26:41.021Z,97047.94
2023-03-25T09:29:09.387Z,97036.19
2023-03-25T09:31:37.739Z,97040.34
2023-03-25T09:34:07.595Z,97040.56
2023-03-25T09:36:40.197Z,97037.22
2023-03-25T09:39:08.562Z,97040.75
2023-03-25T09:41:55.849Z,97035.81
2023-03-25T09:44:36.910Z,97037.69
2023-03-25T09:47:05.897Z,97032.16
2023-03-25T09:49:41.520Z,97028.75
2023-03-25T09:52:18.262Z,97030.03
2023-03-25T09:54:51.932Z,97020.00
2023-03-25T09:57:25.471Z,97021.69
2023-03-25T09:59:54.695Z,97026.84
2023-03-25T10:02:40.772Z,97020.47
2023-03-25T10:05:33.592Z,97018.84
2023-03-25T10:08:16.245Z,97015.81
2023-03-25T10:10:52.527Z,97019.75
2023-03-25T10:13:28.783Z,97024.72
2023-03-25T10:16:03.204Z,97017.53
2023-03-25T10:18:49.708Z,97020.28
2023-03-25T10:21:25.063Z,97010.59
2023-03-25T10:24:05.910Z,97016.97
2023-03-25T10:26:42.447Z,97018.63
2023-03-25T10:29:17.399Z,97017.59
2023-03-25T10:31:54.105Z,97014.91
2023-03-25T10:34:36.105Z,97024.81
2023-03-25T10:37:12.655Z,97012.66
2023-03-25T10:39:45.501Z,97012.84
2023-03-25T10:42:23.037Z,97014.28
2023-03-25T10:44:51.533Z,97016.56
2023-03-25T10:47:24.896Z,96999.25
2023-03-25T10:49:59.189Z,97007.69
2023-03-25T10:52:29.037Z,97014.72
2023-03-25T10:54:58.393Z,97004.63
2023-03-25T10:57:30.994Z,97011.00
2023-03-25T11:00:06.714Z,97004.94
2023-03-25T11:02:35.735Z,96997.31
2023-03-25T11:05:07.088Z,97002.84
2023-03-25T11:07:39.161Z,96984.09
2023-03-25T11:10:22.558Z,96992.75
2023-03-25T11:12:52.816Z,96988.63
2023-03-25T11:15:24.713Z,96985.72
2023-03-25T11:18:06.300Z,96986.75
2023-03-25T11:20:41.200Z,96976.88
2023-03-25T11:23:23.434Z,96973.34
2023-03-25T11:25:52.136Z,96977.25
2023-03-25T11:28:27.584Z,96960.97
2023-03-25T11:31:16.642Z,96966.13
2023-03-25T11:33:47.832Z,96966.94
2023-03-25T11:36:28.503Z,96957.91
2023-03-25T11:39:04.452Z,96953.78
2023-03-25T11:41:35.562Z,96949.47
2023-03-25T11:44:06.981Z,96948.88
2023-03-25T11:46:38.167Z,96940.41
2023-03-25T11:49:12.102Z,96932.59
2023-03-25T11:51:41.084Z,96938.16
2023-03-25T11:54:15.452Z,96937.94
2023-03-25T11:56:45.914Z,96941.44
2023-03-25T11:59:24.807Z,96924.34
2023-03-25T12:02:02.976Z,96922.09
2023-03-25T12:04:32.448Z,96911.00
2023-03-25T12:07:03.416Z,96898.25
2023-03-25T12:09:33.584Z,96894.13
2023-03-25T12:12:44.544Z,96875.19
2023-03-25T12:15:25.424Z,96880.75
2023-03-25T12:18:06.992Z,96872.50
2023-03-25T12:20:46.842Z,96854.97
2023-03-25T12:23:27.302Z,96857.84
2023-03-25T12:26:08.107Z,96858.88
2023-03-25T12:29:05.984Z,96848.78
2023-03-25T12:31:47.300Z,96862.75
2023-03-25T12:34:31.230Z,96839.63
2023-03-25T12:37:12.779Z,96845.41
2023-03-25T12:40:07.905Z,96850.34
2023-03-25T12:42:48.668Z,96842.91
2023-03-25T12:45:33.020Z,96830.72
2023-03-25T12:48:12.524Z,96820.00
2023-03-25T12:50:54.708Z,96845.97
2023-03-25T12:53:42.769Z,96839.84
2023-03-25T12:56:43.991Z,96849.72
2023-03-25T12:59:38.820Z,96880.94
2023-03-25T13:02:22.504Z,96893.94
2023-03-25T13:05:07.234Z,96906.91
2023-03-25T13:07:40.954Z,96898.22
2023-03-25T13:10:19.208Z,96891.84
2023-03-25T13:12:51.739Z,96890.75
2023-03-25T13:15:27.347Z,96883.91
2023-03-25T13:18:00.136Z,96886.56
2023-03-25T13:20:34.088Z,96892.03
2023-03-25T13:23:06.337Z,96903.09
2023-03-25T13:25:44.042Z,96926.03
2023-03-25T13:28:17.936Z,96914.63
2023-03-25T13:30:49.418Z,96913.13
2023-03-25T13:33:22.123Z,96917.78
2023-03-25T13:35:55.166Z,96904.78
2023-03-25T13:38:30.866Z,96923.81
2023-03-25T13:41:11.600Z,96929.44
2023-03-25T13:43:52.540Z,96917.47
2023-03-25T13:46:27.000Z,96918.00
2023-03-25T13:49:00.492Z,96922.22
2023-03-25T13:51:29.273Z,96915.16
2023-03-25T13:54:02.759Z,96949.72
2023-03-25T13:57:19.664Z,96970.31
2023-03-25T14:00:24.909Z,96987.94
2023-03-25T14:03:32.543Z,96970.47
2023-03-25T14:06:36.714Z,96967.75
2023-03-25T14:09:50.413Z,96973.34
2023-03-25T14:12:23.426Z,96973.06
2023-03-25T14:14:58.379Z,96973.41
2023-03-25T14:17:28.181Z,96966.34
2023-03-25T14:20:01.157Z,96937.97
2023-03-25T14:22:33.853Z,96933.47
2023-03-25T14:25:02.338Z,96935.59
2023-03-25T14:27:34.169Z,96943.69
2023-03-25T14:30:05.916Z,96944.03
2023-03-25T14:32:37.863Z,96942.38
2023-03-25T14:35:51.851Z,96936.00
2023-03-25T14:38:56.368Z,96929.63
2023-03-25T14:42:02.938Z,96941.47
2023-03-25T14:44:41.297Z,96931.50
2023-03-25T14:47:31.963Z,96926.25
2023-03-25T14:50:18.300Z,96927.91
2023-03-25T14:52:53.357Z,96922.56
2023-03-25T14:55:27.768Z,96944.56
2023-03-25T14:58:00.710Z,96939.41
2023-03-25T15:00:34.376Z,96951.63
2023-03-25T15:03:06.821Z,96927.94
2023-03-25T15:05:37.159Z,96918.22
2023-03-25T15:08:16.818Z,96925.31
2023-03-25T15:10:49.905Z,96922.84
2023-03-25T15:13:26.088Z,96893.63
2023-03-25T15:16:03.780Z,96882.44
2023-03-25T15:19:02.689Z,96879.22
2023-03-25T15:22:21.522Z,96873.84
2023-03-25T15:24:57.180Z,96868.50
2023-03-25T15:28:03.732Z,96863.59
2023-03-25T15:31:01.990Z,96870.06
2023-03-25T15:33:52.486Z,96864.78
2023-03-25T15:36:45.784Z,96867.53
2023-03-25T15:39:33.306Z,96864.03
2023-03-25T15:43:08.628Z,96885.72
2023-03-25T15:46:03.757Z,96898.44
2023-03-25T15:49:03.073Z,96920.75
2023-03-25T15:51:48.366Z,96981.41
2023-03-25T15:54:31.031Z,97056.97
2023-03-25T15:57:04.832Z,97046.38
2023-03-25T15:59:42.041Z,97053.34
2023-03-25T16:02:26.649Z,96992.44
2023-03-25T16:04:56.284Z,97010.34
2023-03-25T16:07:30.508Z,97007.47
2023-03-25T16:10:13.067Z,97008.06
2023-03-25T16:12:45.016Z,97006.66
2023-03-25T16:15:17.415Z,97013.88
2023-03-25T16:17:48.415Z,97005.16
2023-03-25T16:20:20.928Z,96997.03
2023-03-25T16:22:53.319Z,96997.56
2023-03-25T16:25:25.080Z,96996.44
2023-03-25T16:27:57.288Z,96991.47
2023-03-25T16:30:30.647Z,96985.50
2023-03-25T16:33:16.824Z,96981.72
2023-03-25T16:35:48.324Z,96987.41
2023-03-25T16:38:20.291Z,96995.72
2023-03-25T16:40:55.819Z,96993.25
2023-03-25T16:43:28.284Z,96990.94
2023-03-25T16:46:00.773Z,96995.44
2023-03-25T16:48:33.567Z,96999.22
2023-03-25T16:51:08.408Z,96993.28
2023-03-25T16:53:40.205Z,96993.63
2023-03-25T16:56:25.129Z,96995.78
2023-03-25T16:59:00.304Z,96991.66
2023-03-25T17:01:30.147Z,96995.28
2023-03-25T17:04:17.030Z,96989.53
2023-03-25T17:06:52.983Z,96991.69
2023-03-25T17:09:24.774Z,96989.22
2023-03-25T17:11:57.943Z,96991.53
2023-03-25T17:14:33.464Z,96999.69
2023-03-25T17:17:26.423Z,97004.53
2023-03-25T17:20:00.155Z,97000.72
2023-03-25T17:22:33.929Z,97010.03
2023-03-25T17:25:18.524Z,97007.09
2023-03-25T17:27:49.496Z,97010.91
2023-03-25T17:30:22.118Z,97015.75
2023-03-25T17:32:53.330Z,97010.78
2023-03-25T17:35:28.092Z,97017.59
2023-03-25T17:37:58.948Z,97016.28
2023-03-25T17:40:29.735Z,97018.25
2023-03-25T17:42:58.676Z,97023.09
2023-03-25T17:45:27.363Z,97036.56
2023-03-25T17:47:55.737Z,97032.56
2023-03-25T17:50:27.987Z,97030.25
2023-03-25T17:52:57.475Z,97030.75
2023-03-25T17:55:25.920Z,97031.44
2023-03-25T17:57:54.775Z,97036.44
2023-03-25T18:00:23.096Z,97034.59
2023-03-25T18:02:51.447Z,97045.91
2023-03-25T18:05:19.959Z,97033.25
2023-03-25T18:07:49.882Z,97039.06
2023-03-25T18:10:20.804Z,97032.44
2023-03-25T18:12:49.113Z,97042.72
2023-03-25T18:15:17.583Z,97047.69
2023-03-25T18:17:45.940Z,97048.19
2023-03-25T18:20:18.449Z,97047.69
2023-03-25T18:22:46.929Z,97054.31
2023-03-25T18:25:16.744Z,97053.66
2023-03-25T18:27:46.240Z,97053.16
2023-03-25T18:30:21.702Z,97056.13
2023-03-25T18:32:50.285Z,97050.34
2023-03-25T18:35:18.886Z,97053.78
2023-03-25T18:37:48.760Z,97056.59
2023-03-25T18:40:23.619Z,97058.63
2023-03-25T18:42:52.757Z,97055.13
2023-03-25T18:45:23.631Z,97050.00
2023-03-25T18:47:53.140Z,97060.75
2023-03-25T18:50:28.645Z,97048.66
2023-03-25T18:52:58.010Z,97061.09
2023-03-25T18:55:29.850Z,97061.25
2023-03-25T18:57:58.812Z,97054.28
2023-03-25T19:00:31.067Z,97064.22
2023-03-25T19:02:59.616Z,97066.88
2023-03-25T19:05:29.053Z,97074.16
2023-03-25T19:07:57.672Z,97072.50
2023-03-25T19:10:30.477Z,97071.00
2023-03-25T19:12:59.119Z,97071.50
2023-03-25T19:15:32.190Z,97065.50
2023-03-25T19:18:01.768Z,97060.38
2023-03-25T19:20:33.722Z,97072.16
2023-03-25T19:23:03.737Z,97073.31
2023-03-25T19:25:33.489Z,97075.28
2023-03-25T19:28:01.838Z,97080.75
2023-03-25T19:30:31.805Z,97082.72
2023-03-25T19:33:01.851Z,97082.22
2023-03-25T19:35:32.559Z,97088.66
2023-03-25T19:38:03.359Z,97083.50
2023-03-25T19:40:35.485Z,97088.31
2023-03-25T19:43:05.292Z,97090.44
2023-03-25T19:45:34.420Z,97071.69
2023-03-25T19:48:02.885Z,97067.25
2023-03-25T19:50:33.802Z,97064.06
2023-03-25T19:53:06.126Z,97075.31
2023-03-25T19:55:36.284Z,97065.88
2023-03-25T19:58:07.432Z,97068.84
2023-03-25T20:00:35.794Z,97074.44
2023-03-25T20:03:04.256Z,97080.06
2023-03-25T20:05:36.136Z,97075.88
2023-03-25T20:08:05.419Z,97082.19
2023-03-25T20:10:35.105Z,97088.44
2023-03-25T20:13:03.439Z,97093.09
2023-03-25T20:15:31.772Z,97093.25
2023-03-25T20:18:00.405Z,97088.91
2023-03-25T20:20:28.806Z,97093.41
2023-03-25T20:22:57.114Z,97082.13
2023-03-25T20:25:25.518Z,97087.41
2023-03-25T20:27:55.626Z,97085.78
2023-03-25T20:30:24.851Z,97086.59
2023-03-25T20:32:53.258Z,97083.28
2023-03-25T20:35:22.169Z,97085.25
2023-03-25T20:37:52.132Z,97097.00
2023-03-25T20:40:27.749Z,97097.94
2023-03-25T20:43:04.528Z,97099.94
2023-03-25T20:45:33.090Z,97087.69
2023-03-25T20:48:01.662Z,97091.31
2023-03-25T20:50:30.063Z,97093.97
2023-03-25T20:52:58.376Z,97094.28
2023-03-25T20:55:26.705Z,97092.63
2023-03-25T20:57:55.090Z,97082.19
2023-03-25T21:00:24.822Z,97085.00
2023-03-25T21:02:54.330Z,97077.06
2023-03-25T21:05:22.803Z,97080.69
2023-03-25T21:07:51.268Z,97085.16
2023-03-25T21:10:20.136Z,97089.47
2023-03-25T21:12:49.142Z,97091.25
2023-03-25T21:15:17.412Z,97091.25
2023-03-25T21:17:47.233Z,97093.75
2023-03-25T21:20:15.604Z,97087.66
2023-03-25T21:22:45.122Z,97088.31
2023-03-25T21:25:16.909Z,97090.94
2023-03-25T21:27:46.890Z,97082.03
2023-03-25T21:30:16.573Z,97088.16
2023-03-25T21:32:46.313Z,97085.50
2023-03-25T21:35:14.793Z,97080.19
2023-03-25T21:37:43.103Z,97077.25
2023-03-25T21:40:13.239Z,97079.25
2023-03-25T21:42:42.187Z,97073.09
2023-03-25T21:45:13.612Z,97073.94
2023-03-25T21:47:42.390Z,97067.66
2023-03-25T21:50:14.406Z,97062.81
2023-03-25T21:52:47.141Z,97061.50
2023-03-25T21:55:17.237Z,97058.88
2023-03-25T21:57:47.737Z,97048.28
2023-03-25T22:00:19.593Z,97051.09
2023-03-25T22:02:48.619Z,97045.63
2023-03-25T22:05:18.722Z,97042.97
2023-03-25T22:07:47.074Z,97051.94
2023-03-25T22:10:15.414Z,97040.34
2023-03-25T22:12:43.724Z,97044.50
2023-03-25T22:15:12.711Z,97044.50
2023-03-25T22:17:41.061Z,97039.88
2023-03-25T22:20:12.154Z,97044.34
2023-03-25T22:22:42.583Z,97046.00
2023-03-25T22:25:11.706Z,97049.50
2023-03-25T22:27:40.053Z,97051.13
2023-03-25T22:30:11.256Z,97055.44
2023-03-25T22:32:39.656Z,97057.28
2023-03-25T22:35:11.879Z,97057.13
2023-03-25T22:37:42.056Z,97062.25
2023-03-25T22:40:12.921Z,97064.06
2023-03-25T22:42:41.500Z,97057.94
2023-03-25T22:45:11.105Z,97065.72
2023-03-25T22:47:39.432Z,97060.56
2023-03-25T22:50:08.987Z,97057.13
2023-03-25T22:52:37.340Z,97061.56
2023-03-25T22:55:08.071Z,97066.19
2023-03-25T22:57:36.786Z,97064.53
2023-03-25T23:00:12.787Z,97061.03
2023-03-25T23:02:41.340Z,97063.53
2023-03-25T23:05:11.234Z,97064.69
2023-03-25T23:07:39.625Z,97060.25
2023-03-25T23:10:09.972Z,97058.72
2023-03-25T23:12:38.335Z,97059.72
2023-03-25T23:15:10.928Z,97058.38
2023-03-25T23:17:39.368Z,97055.72
2023-03-25T23:20:09.860Z,97053.22
2023-03-25T23:22:38.244Z,97066.63
2023-03-25T23:25:09.662Z,97062.97
2023-03-25T23:27:39.290Z,97071.91
2023-03-25T23:30:09.592Z,97069.59
2023-03-25T23:32:38.245Z,97070.41
2023-03-25T23:35:09.332Z,97064.28
2023-03-25T23:37:37.640Z,97063.44
2023-03-25T23:40:11.231Z,97065.09
2023-03-25T23:42:39.646Z,97065.09
2023-03-25T23:45:09.564Z,97070.09
2023-03-25T23:47:38.029Z,97068.28
2023-03-25T23:50:07.783Z,97064.78
2023-03-25T23:52:36.158Z,97069.94
2023-03-25T23:55:04.764Z,97067.13
2023-03-25T23:57:34.443Z,97067.97
